sensor_id;sensor_type;location;lat;lon;timestamp;P1;durP1;ratioP1;P2;durP2;ratioP2
30571;SDS011;17348;50.948;10.696;2023-01-08T00:00:46;6.00;;;3.33;;
30571;SDS011;17348;50.948;10.696;2023-01-08T00:03:50;6.68;;;3.00;;
30571;SDS011;17348;50.948;10.696;2023-01-08T00:06:53;7.65;;;4.03;;
30571;SDS011;17348;50.948;10.696;2023-01-08T00:09:55;8.70;;;3.83;;
30571;SDS011;17348;50.948;10.696;2023-01-08T00:12:57;6.57;;;3.70;;
30571;SDS011;17348;50.948;10.696;2023-01-08T00:16:03;7.63;;;3.45;;
30571;SDS011;17348;50.948;10.696;2023-01-08T00:19:09;6.28;;;3.95;;
30571;SDS011;17348;50.948;10.696;2023-01-08T00:22:12;7.97;;;3.65;;
30571;SDS011;17348;50.948;10.696;2023-01-08T00:25:14;5.95;;;3.38;;
30571;SDS011;17348;50.948;10.696;2023-01-08T00:28:16;11.18;;;3.55;;
30571;SDS011;17348;50.948;10.696;2023-01-08T00:31:20;6.90;;;3.45;;
30571;SDS011;17348;50.948;10.696;2023-01-08T00:34:24;5.85;;;4.00;;
30571;SDS011;17348;50.948;10.696;2023-01-08T00:37:27;8.65;;;2.97;;
30571;SDS011;17348;50.948;10.696;2023-01-08T00:40:29;5.68;;;3.67;;
30571;SDS011;17348;50.948;10.696;2023-01-08T00:43:31;6.78;;;3.92;;
30571;SDS011;17348;50.948;10.696;2023-01-08T00:46:34;10.75;;;3.60;;
30571;SDS011;17348;50.948;10.696;2023-01-08T00:49:37;8.32;;;3.75;;
30571;SDS011;17348;50.948;10.696;2023-01-08T00:52:40;6.30;;;3.33;;
30571;SDS011;17348;50.948;10.696;2023-01-08T00:55:42;8.07;;;4.07;;
30571;SDS011;17348;50.948;10.696;2023-01-08T00:58:44;6.65;;;3.75;;
30571;SDS011;17348;50.948;10.696;2023-01-08T01:01:47;8.05;;;3.78;;
30571;SDS011;17348;50.948;10.696;2023-01-08T01:04:51;6.18;;;3.95;;
30571;SDS011;17348;50.948;10.696;2023-01-08T01:07:53;9.45;;;4.25;;
30571;SDS011;17348;50.948;10.696;2023-01-08T01:10:56;7.97;;;4.28;;
30571;SDS011;17348;50.948;10.696;2023-01-08T01:13:58;7.85;;;4.03;;
30571;SDS011;17348;50.948;10.696;2023-01-08T01:17:01;7.43;;;4.10;;
30571;SDS011;17348;50.948;10.696;2023-01-08T01:20:05;6.15;;;3.55;;
30571;SDS011;17348;50.948;10.696;2023-01-08T01:23:09;8.75;;;3.72;;
30571;SDS011;17348;50.948;10.696;2023-01-08T01:26:13;6.50;;;4.32;;
30571;SDS011;17348;50.948;10.696;2023-01-08T01:29:16;7.80;;;4.55;;
30571;SDS011;17348;50.948;10.696;2023-01-08T01:32:19;6.53;;;3.67;;
30571;SDS011;17348;50.948;10.696;2023-01-08T01:35:22;10.52;;;5.07;;
30571;SDS011;17348;50.948;10.696;2023-01-08T01:38:25;9.20;;;4.40;;
30571;SDS011;17348;50.948;10.696;2023-01-08T01:41:28;8.27;;;4.57;;
30571;SDS011;17348;50.948;10.696;2023-01-08T01:44:33;7.70;;;4.30;;
30571;SDS011;17348;50.948;10.696;2023-01-08T01:47:38;9.40;;;4.82;;
30571;SDS011;17348;50.948;10.696;2023-01-08T01:50:44;8.18;;;4.05;;
30571;SDS011;17348;50.948;10.696;2023-01-08T01:53:49;9.55;;;4.60;;
30571;SDS011;17348;50.948;10.696;2023-01-08T01:56:52;5.70;;;4.00;;
30571;SDS011;17348;50.948;10.696;2023-01-08T01:59:54;6.15;;;3.88;;
30571;SDS011;17348;50.948;10.696;2023-01-08T02:02:58;8.43;;;4.45;;
30571;SDS011;17348;50.948;10.696;2023-01-08T02:06:04;8.88;;;4.93;;
30571;SDS011;17348;50.948;10.696;2023-01-08T02:09:16;8.98;;;4.15;;
30571;SDS011;17348;50.948;10.696;2023-01-08T02:12:25;7.60;;;4.13;;
30571;SDS011;17348;50.948;10.696;2023-01-08T02:15:33;10.13;;;4.32;;
30571;SDS011;17348;50.948;10.696;2023-01-08T02:18:43;11.07;;;4.30;;
30571;SDS011;17348;50.948;10.696;2023-01-08T02:21:52;10.77;;;4.60;;
30571;SDS011;17348;50.948;10.696;2023-01-08T02:25:06;6.25;;;3.50;;
30571;SDS011;17348;50.948;10.696;2023-01-08T02:28:13;7.32;;;4.13;;
30571;SDS011;17348;50.948;10.696;2023-01-08T02:31:16;9.38;;;4.30;;
30571;SDS011;17348;50.948;10.696;2023-01-08T02:34:21;9.63;;;4.35;;
30571;SDS011;17348;50.948;10.696;2023-01-08T02:37:23;8.20;;;4.43;;
30571;SDS011;17348;50.948;10.696;2023-01-08T02:40:27;7.10;;;3.53;;
30571;SDS011;17348;50.948;10.696;2023-01-08T02:43:37;8.23;;;4.32;;
30571;SDS011;17348;50.948;10.696;2023-01-08T02:46:44;7.85;;;3.63;;
30571;SDS011;17348;50.948;10.696;2023-01-08T02:49:47;6.97;;;3.92;;
30571;SDS011;17348;50.948;10.696;2023-01-08T02:52:55;10.18;;;4.90;;
30571;SDS011;17348;50.948;10.696;2023-01-08T02:56:03;7.20;;;4.05;;
30571;SDS011;17348;50.948;10.696;2023-01-08T02:59:09;6.95;;;4.13;;
30571;SDS011;17348;50.948;10.696;2023-01-08T03:02:14;9.73;;;4.43;;
30571;SDS011;17348;50.948;10.696;2023-01-08T03:05:19;8.48;;;3.85;;
30571;SDS011;17348;50.948;10.696;2023-01-08T03:08:25;6.95;;;4.25;;
30571;SDS011;17348;50.948;10.696;2023-01-08T03:11:30;7.60;;;4.57;;
30571;SDS011;17348;50.948;10.696;2023-01-08T03:14:40;7.88;;;5.05;;
30571;SDS011;17348;50.948;10.696;2023-01-08T03:17:47;6.83;;;4.43;;
30571;SDS011;17348;50.948;10.696;2023-01-08T03:20:53;11.70;;;5.65;;
30571;SDS011;17348;50.948;10.696;2023-01-08T03:23:56;8.68;;;4.68;;
30571;SDS011;17348;50.948;10.696;2023-01-08T03:26:59;7.32;;;4.30;;
30571;SDS011;17348;50.948;10.696;2023-01-08T03:30:07;10.20;;;4.90;;
30571;SDS011;17348;50.948;10.696;2023-01-08T03:33:11;9.13;;;4.00;;
30571;SDS011;17348;50.948;10.696;2023-01-08T03:36:16;7.25;;;4.72;;
30571;SDS011;17348;50.948;10.696;2023-01-08T03:39:22;7.47;;;4.75;;
30571;SDS011;17348;50.948;10.696;2023-01-08T03:42:29;9.35;;;4.78;;
30571;SDS011;17348;50.948;10.696;2023-01-08T03:45:34;11.40;;;4.20;;
30571;SDS011;17348;50.948;10.696;2023-01-08T03:48:39;10.85;;;4.70;;
30571;SDS011;17348;50.948;10.696;2023-01-08T03:51:45;9.32;;;5.25;;
30571;SDS011;17348;50.948;10.696;2023-01-08T03:54:48;8.50;;;5.35;;
30571;SDS011;17348;50.948;10.696;2023-01-08T03:57:50;6.57;;;4.57;;
30571;SDS011;17348;50.948;10.696;2023-01-08T04:00:55;9.63;;;5.28;;
30571;SDS011;17348;50.948;10.696;2023-01-08T04:03:57;9.70;;;5.00;;
30571;SDS011;17348;50.948;10.696;2023-01-08T04:06:59;7.95;;;4.55;;
30571;SDS011;17348;50.948;10.696;2023-01-08T04:10:02;7.20;;;3.97;;
30571;SDS011;17348;50.948;10.696;2023-01-08T04:13:04;7.10;;;4.20;;
30571;SDS011;17348;50.948;10.696;2023-01-08T04:16:08;8.15;;;4.85;;
30571;SDS011;17348;50.948;10.696;2023-01-08T04:19:10;8.93;;;4.70;;
30571;SDS011;17348;50.948;10.696;2023-01-08T04:22:13;10.88;;;4.70;;
30571;SDS011;17348;50.948;10.696;2023-01-08T04:25:16;9.05;;;4.93;;
30571;SDS011;17348;50.948;10.696;2023-01-08T04:28:19;7.13;;;4.32;;
30571;SDS011;17348;50.948;10.696;2023-01-08T04:31:23;6.38;;;4.10;;
30571;SDS011;17348;50.948;10.696;2023-01-08T04:34:26;8.70;;;5.25;;
30571;SDS011;17348;50.948;10.696;2023-01-08T04:37:28;10.02;;;5.07;;
30571;SDS011;17348;50.948;10.696;2023-01-08T04:40:31;11.55;;;5.25;;
30571;SDS011;17348;50.948;10.696;2023-01-08T04:43:33;5.68;;;3.97;;
30571;SDS011;17348;50.948;10.696;2023-01-08T04:46:37;9.85;;;4.75;;
30571;SDS011;17348;50.948;10.696;2023-01-08T04:49:39;8.13;;;4.30;;
30571;SDS011;17348;50.948;10.696;2023-01-08T04:52:42;9.00;;;5.25;;
30571;SDS011;17348;50.948;10.696;2023-01-08T04:55:44;7.68;;;4.20;;
30571;SDS011;17348;50.948;10.696;2023-01-08T04:58:47;10.82;;;4.93;;
30571;SDS011;17348;50.948;10.696;2023-01-08T05:01:50;7.30;;;4.13;;
30571;SDS011;17348;50.948;10.696;2023-01-08T05:04:53;8.82;;;4.38;;
30571;SDS011;17348;50.948;10.696;2023-01-08T05:07:55;10.57;;;4.28;;
30571;SDS011;17348;50.948;10.696;2023-01-08T05:10:57;8.32;;;3.97;;
30571;SDS011;17348;50.948;10.696;2023-01-08T05:14:00;10.25;;;4.55;;
30571;SDS011;17348;50.948;10.696;2023-01-08T05:17:03;7.47;;;3.53;;
30571;SDS011;17348;50.948;10.696;2023-01-08T05:20:06;6.80;;;3.92;;
30571;SDS011;17348;50.948;10.696;2023-01-08T05:23:09;7.70;;;3.67;;
30571;SDS011;17348;50.948;10.696;2023-01-08T05:26:11;7.93;;;4.28;;
30571;SDS011;17348;50.948;10.696;2023-01-08T05:29:14;6.68;;;3.63;;
30571;SDS011;17348;50.948;10.696;2023-01-08T05:32:18;6.82;;;4.25;;
30571;SDS011;17348;50.948;10.696;2023-01-08T05:35:21;8.63;;;4.13;;
30571;SDS011;17348;50.948;10.696;2023-01-08T05:38:23;6.90;;;4.15;;
30571;SDS011;17348;50.948;10.696;2023-01-08T05:41:26;8.38;;;3.78;;
30571;SDS011;17348;50.948;10.696;2023-01-08T05:44:28;8.27;;;3.58;;
30571;SDS011;17348;50.948;10.696;2023-01-08T05:47:33;5.38;;;3.60;;
30571;SDS011;17348;50.948;10.696;2023-01-08T05:50:35;6.93;;;4.30;;
30571;SDS011;17348;50.948;10.696;2023-01-08T05:53:38;7.05;;;4.10;;
30571;SDS011;17348;50.948;10.696;2023-01-08T05:56:40;6.40;;;3.83;;
30571;SDS011;17348;50.948;10.696;2023-01-08T05:59:44;9.20;;;4.22;;
30571;SDS011;17348;50.948;10.696;2023-01-08T06:02:48;7.57;;;4.57;;
30571;SDS011;17348;50.948;10.696;2023-01-08T06:05:50;7.07;;;4.55;;
30571;SDS011;17348;50.948;10.696;2023-01-08T06:08:52;6.53;;;4.05;;
30571;SDS011;17348;50.948;10.696;2023-01-08T06:11:55;7.40;;;4.47;;
30571;SDS011;17348;50.948;10.696;2023-01-08T06:14:58;7.03;;;4.53;;
30571;SDS011;17348;50.948;10.696;2023-01-08T06:18:02;6.85;;;4.18;;
30571;SDS011;17348;50.948;10.696;2023-01-08T06:21:04;8.65;;;4.88;;
30571;SDS011;17348;50.948;10.696;2023-01-08T06:24:07;7.68;;;4.25;;
30571;SDS011;17348;50.948;10.696;2023-01-08T06:27:09;9.80;;;4.32;;
30571;SDS011;17348;50.948;10.696;2023-01-08T06:30:11;9.65;;;5.32;;
30571;SDS011;17348;50.948;10.696;2023-01-08T06:33:15;9.77;;;5.78;;
30571;SDS011;17348;50.948;10.696;2023-01-08T06:36:18;8.93;;;5.55;;
30571;SDS011;17348;50.948;10.696;2023-01-08T06:39:20;13.15;;;5.93;;
30571;SDS011;17348;50.948;10.696;2023-01-08T06:42:23;9.40;;;5.38;;
30571;SDS011;17348;50.948;10.696;2023-01-08T06:45:25;8.55;;;5.20;;
30571;SDS011;17348;50.948;10.696;2023-01-08T06:48:29;9.85;;;5.00;;
30571;SDS011;17348;50.948;10.696;2023-01-08T06:51:31;10.40;;;4.40;;
30571;SDS011;17348;50.948;10.696;2023-01-08T06:54:34;13.23;;;4.32;;
30571;SDS011;17348;50.948;10.696;2023-01-08T06:57:36;7.32;;;4.32;;
30571;SDS011;17348;50.948;10.696;2023-01-08T07:00:42;6.22;;;3.85;;
30571;SDS011;17348;50.948;10.696;2023-01-08T07:03:46;6.18;;;3.80;;
30571;SDS011;17348;50.948;10.696;2023-01-08T07:06:49;8.43;;;4.35;;
30571;SDS011;17348;50.948;10.696;2023-01-08T07:09:51;6.68;;;3.65;;
30571;SDS011;17348;50.948;10.696;2023-01-08T07:12:53;7.20;;;3.92;;
30571;SDS011;17348;50.948;10.696;2023-01-08T07:15:55;7.78;;;4.38;;
30571;SDS011;17348;50.948;10.696;2023-01-08T07:18:59;8.40;;;4.38;;
30571;SDS011;17348;50.948;10.696;2023-01-08T07:22:02;10.05;;;4.50;;
30571;SDS011;17348;50.948;10.696;2023-01-08T07:25:04;11.70;;;4.55;;
30571;SDS011;17348;50.948;10.696;2023-01-08T07:28:09;7.80;;;4.55;;
30571;SDS011;17348;50.948;10.696;2023-01-08T07:31:12;9.55;;;5.30;;
30571;SDS011;17348;50.948;10.696;2023-01-08T07:34:16;10.05;;;5.00;;
30571;SDS011;17348;50.948;10.696;2023-01-08T07:37:19;10.77;;;5.00;;
30571;SDS011;17348;50.948;10.696;2023-01-08T07:40:21;14.10;;;4.93;;
30571;SDS011;17348;50.948;10.696;2023-01-08T07:43:24;7.32;;;4.30;;
30571;SDS011;17348;50.948;10.696;2023-01-08T07:46:29;6.60;;;3.88;;
30571;SDS011;17348;50.948;10.696;2023-01-08T07:49:33;8.70;;;4.28;;
30571;SDS011;17348;50.948;10.696;2023-01-08T07:52:35;7.78;;;4.25;;
30571;SDS011;17348;50.948;10.696;2023-01-08T07:55:38;7.32;;;4.55;;
30571;SDS011;17348;50.948;10.696;2023-01-08T07:58:40;10.32;;;4.35;;
30571;SDS011;17348;50.948;10.696;2023-01-08T08:01:43;6.03;;;3.95;;
30571;SDS011;17348;50.948;10.696;2023-01-08T08:04:47;10.20;;;3.75;;
30571;SDS011;17348;50.948;10.696;2023-01-08T08:07:49;5.25;;;3.20;;
30571;SDS011;17348;50.948;10.696;2023-01-08T08:10:52;5.80;;;3.65;;
30571;SDS011;17348;50.948;10.696;2023-01-08T08:13:54;4.97;;;3.03;;
30571;SDS011;17348;50.948;10.696;2023-01-08T08:16:57;4.43;;;2.83;;
30571;SDS011;17348;50.948;10.696;2023-01-08T08:20:00;7.72;;;3.17;;
30571;SDS011;17348;50.948;10.696;2023-01-08T08:23:04;3.13;;;2.22;;
30571;SDS011;17348;50.948;10.696;2023-01-08T08:26:07;5.28;;;2.80;;
30571;SDS011;17348;50.948;10.696;2023-01-08T08:29:10;4.00;;;2.33;;
30571;SDS011;17348;50.948;10.696;2023-01-08T08:32:12;4.50;;;2.38;;
30571;SDS011;17348;50.948;10.696;2023-01-08T08:35:16;4.18;;;2.42;;
30571;SDS011;17348;50.948;10.696;2023-01-08T08:38:18;4.53;;;2.72;;
30571;SDS011;17348;50.948;10.696;2023-01-08T08:41:21;5.78;;;3.35;;
30571;SDS011;17348;50.948;10.696;2023-01-08T08:44:23;6.50;;;3.10;;
30571;SDS011;17348;50.948;10.696;2023-01-08T08:47:26;5.78;;;3.05;;
30571;SDS011;17348;50.948;10.696;2023-01-08T08:50:29;5.78;;;2.97;;
30571;SDS011;17348;50.948;10.696;2023-01-08T08:53:32;6.75;;;2.90;;
30571;SDS011;17348;50.948;10.696;2023-01-08T08:56:34;7.15;;;2.83;;
30571;SDS011;17348;50.948;10.696;2023-01-08T08:59:37;6.97;;;2.85;;
30571;SDS011;17348;50.948;10.696;2023-01-08T09:02:39;5.43;;;2.85;;
30571;SDS011;17348;50.948;10.696;2023-01-08T09:05:43;5.03;;;2.90;;
30571;SDS011;17348;50.948;10.696;2023-01-08T09:08:45;8.10;;;3.28;;
30571;SDS011;17348;50.948;10.696;2023-01-08T09:11:48;6.18;;;2.97;;
30571;SDS011;17348;50.948;10.696;2023-01-08T09:14:51;6.78;;;2.67;;
30571;SDS011;17348;50.948;10.696;2023-01-08T09:17:54;4.18;;;2.35;;
30571;SDS011;17348;50.948;10.696;2023-01-08T09:20:59;4.07;;;2.90;;
30571;SDS011;17348;50.948;10.696;2023-01-08T09:24:05;4.78;;;2.47;;
30571;SDS011;17348;50.948;10.696;2023-01-08T09:27:09;5.70;;;2.10;;
30571;SDS011;17348;50.948;10.696;2023-01-08T09:30:11;5.22;;;2.90;;
30571;SDS011;17348;50.948;10.696;2023-01-08T09:33:14;9.73;;;2.58;;
30571;SDS011;17348;50.948;10.696;2023-01-08T09:36:17;7.18;;;4.05;;
30571;SDS011;17348;50.948;10.696;2023-01-08T09:39:20;6.07;;;2.97;;
30571;SDS011;17348;50.948;10.696;2023-01-08T09:42:24;4.47;;;2.63;;
30571;SDS011;17348;50.948;10.696;2023-01-08T09:45:29;4.43;;;2.85;;
30571;SDS011;17348;50.948;10.696;2023-01-08T09:48:33;9.00;;;2.65;;
30571;SDS011;17348;50.948;10.696;2023-01-08T09:51:39;5.63;;;2.88;;
30571;SDS011;17348;50.948;10.696;2023-01-08T09:54:41;4.35;;;2.33;;
30571;SDS011;17348;50.948;10.696;2023-01-08T09:57:44;5.05;;;2.55;;
30571;SDS011;17348;50.948;10.696;2023-01-08T10:00:46;3.25;;;2.45;;
30571;SDS011;17348;50.948;10.696;2023-01-08T10:03:50;2.83;;;1.90;;
30571;SDS011;17348;50.948;10.696;2023-01-08T10:06:59;5.15;;;3.00;;
30571;SDS011;17348;50.948;10.696;2023-01-08T10:10:08;20.98;;;11.63;;
30571;SDS011;17348;50.948;10.696;2023-01-08T10:13:19;29.52;;;13.30;;
30571;SDS011;17348;50.948;10.696;2023-01-08T10:16:24;24.02;;;11.82;;
30571;SDS011;17348;50.948;10.696;2023-01-08T10:19:29;45.58;;;16.55;;
30571;SDS011;17348;50.948;10.696;2023-01-08T10:22:33;15.75;;;10.45;;
30571;SDS011;17348;50.948;10.696;2023-01-08T10:25:46;5.35;;;3.42;;
30571;SDS011;17348;50.948;10.696;2023-01-08T10:28:51;4.22;;;2.85;;
30571;SDS011;17348;50.948;10.696;2023-01-08T10:31:53;7.65;;;3.33;;
30571;SDS011;17348;50.948;10.696;2023-01-08T10:34:58;5.43;;;2.60;;
30571;SDS011;17348;50.948;10.696;2023-01-08T10:38:05;4.30;;;2.50;;
30571;SDS011;17348;50.948;10.696;2023-01-08T10:41:24;6.00;;;3.42;;
30571;SDS011;17348;50.948;10.696;2023-01-08T10:44:27;6.07;;;3.15;;
30571;SDS011;17348;50.948;10.696;2023-01-08T10:47:32;4.13;;;2.75;;
30571;SDS011;17348;50.948;10.696;2023-01-08T10:50:37;12.13;;;3.70;;
30571;SDS011;17348;50.948;10.696;2023-01-08T10:53:41;7.43;;;3.28;;
30571;SDS011;17348;50.948;10.696;2023-01-08T10:56:44;5.00;;;2.63;;
30571;SDS011;17348;50.948;10.696;2023-01-08T10:59:46;4.32;;;2.42;;
30571;SDS011;17348;50.948;10.696;2023-01-08T11:02:49;4.57;;;2.78;;
30571;SDS011;17348;50.948;10.696;2023-01-08T11:05:51;6.57;;;2.50;;
30571;SDS011;17348;50.948;10.696;2023-01-08T11:08:55;9.00;;;4.65;;
30571;SDS011;17348;50.948;10.696;2023-01-08T11:12:00;5.50;;;2.85;;
30571;SDS011;17348;50.948;10.696;2023-01-08T11:15:03;3.45;;;2.03;;
30571;SDS011;17348;50.948;10.696;2023-01-08T11:18:15;4.68;;;2.47;;
30571;SDS011;17348;50.948;10.696;2023-01-08T11:21:21;3.47;;;2.33;;
30571;SDS011;17348;50.948;10.696;2023-01-08T11:24:27;4.28;;;1.85;;
30571;SDS011;17348;50.948;10.696;2023-01-08T11:27:32;3.45;;;2.22;;
30571;SDS011;17348;50.948;10.696;2023-01-08T11:30:37;4.95;;;2.20;;
30571;SDS011;17348;50.948;10.696;2023-01-08T11:33:41;3.50;;;2.03;;
30571;SDS011;17348;50.948;10.696;2023-01-08T11:36:46;4.45;;;2.17;;
30571;SDS011;17348;50.948;10.696;2023-01-08T11:39:57;5.00;;;2.30;;
30571;SDS011;17348;50.948;10.696;2023-01-08T11:46:30;2.67;;;1.85;;
30571;SDS011;17348;50.948;10.696;2023-01-08T11:49:42;4.43;;;1.75;;
30571;SDS011;17348;50.948;10.696;2023-01-08T11:53:11;12.15;;;2.45;;
30571;SDS011;17348;50.948;10.696;2023-01-08T11:56:28;4.22;;;1.52;;
30571;SDS011;17348;50.948;10.696;2023-01-08T11:59:55;6.80;;;2.00;;
30571;SDS011;17348;50.948;10.696;2023-01-08T12:03:10;2.92;;;1.42;;
30571;SDS011;17348;50.948;10.696;2023-01-08T12:06:24;3.53;;;1.50;;
30571;SDS011;17348;50.948;10.696;2023-01-08T12:09:37;3.00;;;1.55;;
30571;SDS011;17348;50.948;10.696;2023-01-08T12:12:46;5.20;;;2.33;;
30571;SDS011;17348;50.948;10.696;2023-01-08T12:16:00;1.83;;;1.52;;
30571;SDS011;17348;50.948;10.696;2023-01-08T12:19:16;3.33;;;1.55;;
30571;SDS011;17348;50.948;10.696;2023-01-08T12:22:30;2.60;;;1.60;;
30571;SDS011;17348;50.948;10.696;2023-01-08T12:26:00;5.32;;;2.30;;
30571;SDS011;17348;50.948;10.696;2023-01-08T12:29:15;3.13;;;1.60;;
30571;SDS011;17348;50.948;10.696;2023-01-08T12:32:26;3.22;;;1.65;;
30571;SDS011;17348;50.948;10.696;2023-01-08T12:35:36;5.32;;;1.50;;
30571;SDS011;17348;50.948;10.696;2023-01-08T12:38:41;2.35;;;1.30;;
30571;SDS011;17348;50.948;10.696;2023-01-08T12:41:52;1.48;;;1.08;;
30571;SDS011;17348;50.948;10.696;2023-01-08T12:45:02;2.42;;;1.23;;
30571;SDS011;17348;50.948;10.696;2023-01-08T12:48:09;2.03;;;1.10;;
30571;SDS011;17348;50.948;10.696;2023-01-08T12:51:16;2.15;;;1.20;;
30571;SDS011;17348;50.948;10.696;2023-01-08T12:54:27;3.10;;;1.48;;
30571;SDS011;17348;50.948;10.696;2023-01-08T12:57:33;2.17;;;1.10;;
30571;SDS011;17348;50.948;10.696;2023-01-08T13:00:42;1.65;;;1.17;;
30571;SDS011;17348;50.948;10.696;2023-01-08T13:03:51;1.20;;;0.90;;
30571;SDS011;17348;50.948;10.696;2023-01-08T13:06:59;3.05;;;1.40;;
30571;SDS011;17348;50.948;10.696;2023-01-08T13:10:04;1.10;;;0.80;;
30571;SDS011;17348;50.948;10.696;2023-01-08T13:13:22;1.50;;;0.90;;
30571;SDS011;17348;50.948;10.696;2023-01-08T13:16:29;1.40;;;1.00;;
30571;SDS011;17348;50.948;10.696;2023-01-08T13:19:36;1.33;;;0.80;;
30571;SDS011;17348;50.948;10.696;2023-01-08T13:22:42;1.42;;;1.05;;
30571;SDS011;17348;50.948;10.696;2023-01-08T13:25:52;1.80;;;1.13;;
30571;SDS011;17348;50.948;10.696;2023-01-08T13:29:04;1.63;;;0.80;;
30571;SDS011;17348;50.948;10.696;2023-01-08T13:35:35;1.67;;;0.70;;
30571;SDS011;17348;50.948;10.696;2023-01-08T13:38:38;1.70;;;1.10;;
30571;SDS011;17348;50.948;10.696;2023-01-08T13:41:41;1.92;;;0.88;;
30571;SDS011;17348;50.948;10.696;2023-01-08T13:44:46;3.10;;;1.15;;
30571;SDS011;17348;50.948;10.696;2023-01-08T13:47:51;3.67;;;1.63;;
30571;SDS011;17348;50.948;10.696;2023-01-08T13:50:56;10.18;;;4.43;;
30571;SDS011;17348;50.948;10.696;2023-01-08T13:54:01;13.07;;;4.05;;
30571;SDS011;17348;50.948;10.696;2023-01-08T13:57:16;9.05;;;3.92;;
30571;SDS011;17348;50.948;10.696;2023-01-08T14:00:21;8.68;;;3.70;;
30571;SDS011;17348;50.948;10.696;2023-01-08T14:03:27;6.70;;;3.72;;
30571;SDS011;17348;50.948;10.696;2023-01-08T14:06:30;4.78;;;2.45;;
30571;SDS011;17348;50.948;10.696;2023-01-08T14:09:35;2.22;;;1.48;;
30571;SDS011;17348;50.948;10.696;2023-01-08T14:12:37;3.50;;;1.30;;
30571;SDS011;17348;50.948;10.696;2023-01-08T14:15:40;2.92;;;1.23;;
30571;SDS011;17348;50.948;10.696;2023-01-08T14:18:45;7.43;;;2.85;;
30571;SDS011;17348;50.948;10.696;2023-01-08T14:21:48;3.45;;;2.10;;
30571;SDS011;17348;50.948;10.696;2023-01-08T14:24:53;4.32;;;2.00;;
30571;SDS011;17348;50.948;10.696;2023-01-08T14:27:58;2.72;;;1.52;;
30571;SDS011;17348;50.948;10.696;2023-01-08T14:31:02;2.13;;;1.45;;
30571;SDS011;17348;50.948;10.696;2023-01-08T14:34:05;4.43;;;1.83;;
30571;SDS011;17348;50.948;10.696;2023-01-08T14:37:12;2.35;;;1.23;;
30571;SDS011;17348;50.948;10.696;2023-01-08T14:40:16;2.28;;;1.08;;
30571;SDS011;17348;50.948;10.696;2023-01-08T14:43:28;1.90;;;1.00;;
30571;SDS011;17348;50.948;10.696;2023-01-08T14:46:35;2.78;;;1.40;;
30571;SDS011;17348;50.948;10.696;2023-01-08T14:49:38;1.67;;;1.13;;
30571;SDS011;17348;50.948;10.696;2023-01-08T14:52:44;2.55;;;1.35;;
30571;SDS011;17348;50.948;10.696;2023-01-08T14:55:47;0.80;;;0.80;;
30571;SDS011;17348;50.948;10.696;2023-01-08T14:58:52;2.50;;;1.17;;
30571;SDS011;17348;50.948;10.696;2023-01-08T15:01:57;1.98;;;1.33;;
30571;SDS011;17348;50.948;10.696;2023-01-08T15:05:13;2.22;;;1.30;;
30571;SDS011;17348;50.948;10.696;2023-01-08T15:08:22;3.42;;;1.67;;
30571;SDS011;17348;50.948;10.696;2023-01-08T15:11:26;6.70;;;2.20;;
30571;SDS011;17348;50.948;10.696;2023-01-08T15:14:31;5.68;;;1.52;;
30571;SDS011;17348;50.948;10.696;2023-01-08T15:17:36;2.95;;;1.35;;
30571;SDS011;17348;50.948;10.696;2023-01-08T15:20:42;2.78;;;1.67;;
30571;SDS011;17348;50.948;10.696;2023-01-08T15:23:46;1.77;;;1.35;;
30571;SDS011;17348;50.948;10.696;2023-01-08T15:26:51;3.35;;;1.77;;
30571;SDS011;17348;50.948;10.696;2023-01-08T15:29:54;3.03;;;1.92;;
30571;SDS011;17348;50.948;10.696;2023-01-08T15:33:06;6.65;;;3.30;;
30571;SDS011;17348;50.948;10.696;2023-01-08T15:36:18;3.40;;;1.83;;
30571;SDS011;17348;50.948;10.696;2023-01-08T15:39:21;2.50;;;1.33;;
30571;SDS011;17348;50.948;10.696;2023-01-08T15:42:26;6.07;;;2.33;;
30571;SDS011;17348;50.948;10.696;2023-01-08T15:45:48;5.68;;;2.85;;
30571;SDS011;17348;50.948;10.696;2023-01-08T15:48:50;4.90;;;3.33;;
30571;SDS011;17348;50.948;10.696;2023-01-08T15:51:54;7.40;;;3.30;;
30571;SDS011;17348;50.948;10.696;2023-01-08T15:54:57;4.20;;;1.80;;
30571;SDS011;17348;50.948;10.696;2023-01-08T15:58:01;5.55;;;1.63;;
30571;SDS011;17348;50.948;10.696;2023-01-08T16:01:03;2.45;;;1.20;;
30571;SDS011;17348;50.948;10.696;2023-01-08T16:04:06;1.90;;;1.20;;
30571;SDS011;17348;50.948;10.696;2023-01-08T16:07:10;3.15;;;1.55;;
30571;SDS011;17348;50.948;10.696;2023-01-08T16:10:12;6.38;;;1.70;;
30571;SDS011;17348;50.948;10.696;2023-01-08T16:13:15;2.85;;;1.52;;
30571;SDS011;17348;50.948;10.696;2023-01-08T16:16:17;1.92;;;1.30;;
30571;SDS011;17348;50.948;10.696;2023-01-08T16:19:20;4.90;;;1.20;;
30571;SDS011;17348;50.948;10.696;2023-01-08T16:22:24;2.75;;;1.50;;
30571;SDS011;17348;50.948;10.696;2023-01-08T16:25:26;1.83;;;1.17;;
30571;SDS011;17348;50.948;10.696;2023-01-08T16:28:30;2.67;;;1.75;;
30571;SDS011;17348;50.948;10.696;2023-01-08T16:31:33;2.42;;;1.40;;
30571;SDS011;17348;50.948;10.696;2023-01-08T16:34:35;6.80;;;2.05;;
30571;SDS011;17348;50.948;10.696;2023-01-08T16:37:39;4.05;;;1.85;;
30571;SDS011;17348;50.948;10.696;2023-01-08T16:40:42;4.70;;;2.15;;
30571;SDS011;17348;50.948;10.696;2023-01-08T16:43:44;5.07;;;2.55;;
30571;SDS011;17348;50.948;10.696;2023-01-08T16:46:46;12.20;;;3.08;;
30571;SDS011;17348;50.948;10.696;2023-01-08T16:49:51;8.00;;;3.20;;
30571;SDS011;17348;50.948;10.696;2023-01-08T16:52:54;3.13;;;1.80;;
30571;SDS011;17348;50.948;10.696;2023-01-08T16:55:57;6.47;;;2.88;;
30571;SDS011;17348;50.948;10.696;2023-01-08T16:58:59;4.70;;;2.20;;
30571;SDS011;17348;50.948;10.696;2023-01-08T17:02:02;4.22;;;2.00;;
30571;SDS011;17348;50.948;10.696;2023-01-08T17:05:04;8.73;;;3.97;;
30571;SDS011;17348;50.948;10.696;2023-01-08T17:08:08;4.65;;;2.42;;
30571;SDS011;17348;50.948;10.696;2023-01-08T17:11:16;2.03;;;1.15;;
30571;SDS011;17348;50.948;10.696;2023-01-08T17:14:19;2.22;;;1.20;;
30571;SDS011;17348;50.948;10.696;2023-01-08T17:17:23;2.35;;;1.38;;
30571;SDS011;17348;50.948;10.696;2023-01-08T17:20:26;2.50;;;1.52;;
30571;SDS011;17348;50.948;10.696;2023-01-08T17:23:30;1.10;;;0.85;;
30571;SDS011;17348;50.948;10.696;2023-01-08T17:26:32;3.72;;;1.83;;
30571;SDS011;17348;50.948;10.696;2023-01-08T17:29:39;10.15;;;4.00;;
30571;SDS011;17348;50.948;10.696;2023-01-08T17:32:42;6.47;;;3.03;;
30571;SDS011;17348;50.948;10.696;2023-01-08T17:35:44;4.22;;;2.10;;
30571;SDS011;17348;50.948;10.696;2023-01-08T17:38:48;5.07;;;2.33;;
30571;SDS011;17348;50.948;10.696;2023-01-08T17:41:51;8.95;;;3.88;;
30571;SDS011;17348;50.948;10.696;2023-01-08T17:45:11;7.25;;;3.50;;
30571;SDS011;17348;50.948;10.696;2023-01-08T17:48:13;9.15;;;3.13;;
30571;SDS011;17348;50.948;10.696;2023-01-08T17:51:15;3.53;;;2.08;;
30571;SDS011;17348;50.948;10.696;2023-01-08T17:54:19;7.63;;;3.65;;
30571;SDS011;17348;50.948;10.696;2023-01-08T17:57:22;4.32;;;2.30;;
30571;SDS011;17348;50.948;10.696;2023-01-08T18:00:25;7.10;;;3.20;;
30571;SDS011;17348;50.948;10.696;2023-01-08T18:03:28;4.75;;;1.65;;
30571;SDS011;17348;50.948;10.696;2023-01-08T18:06:30;2.55;;;1.67;;
30571;SDS011;17348;50.948;10.696;2023-01-08T18:09:34;3.65;;;1.52;;
30571;SDS011;17348;50.948;10.696;2023-01-08T18:12:36;4.25;;;1.50;;
30571;SDS011;17348;50.948;10.696;2023-01-08T18:15:39;4.75;;;2.13;;
30571;SDS011;17348;50.948;10.696;2023-01-08T18:18:43;3.42;;;1.40;;
30571;SDS011;17348;50.948;10.696;2023-01-08T18:21:46;2.78;;;1.50;;